sensor_id;sensor_type;location;lat;lon;timestamp;pressure;altitude;pressure_sealevel;temperature;humidity
82222;BME280;71818;52.352;10.912;2023-08-08T00:00:50;99836.72;;;11.06;78.58
82222;BME280;71818;52.352;10.912;2023-08-08T00:03:15;99841.34;;;11.04;78.67
82222;BME280;71818;52.352;10.912;2023-08-08T00:05:41;99837.31;;;11.10;78.37
82222;BME280;71818;52.352;10.912;2023-08-08T00:08:06;99839.38;;;11.06;78.26
82222;BME280;71818;52.352;10.912;2023-08-08T00:10:32;99839.97;;;11.10;78.20
82222;BME280;71818;52.352;10.912;2023-08-08T00:12:57;99838.81;;;11.03;78.71
82222;BME280;71818;52.352;10.912;2023-08-08T00:15:22;99844.56;;;11.08;78.35
82222;BME280;71818;52.352;10.912;2023-08-08T00:17:48;99846.66;;;11.04;78.44
82222;BME280;71818;52.352;10.912;2023-08-08T00:20:13;99835.19;;;11.04;78.32
82222;BME280;71818;52.352;10.912;2023-08-08T00:22:39;99839.66;;;11.03;78.53
82222;BME280;71818;52.352;10.912;2023-08-08T00:25:04;99839.66;;;11.03;78.46
82222;BME280;71818;52.352;10.912;2023-08-08T00:27:29;99834.56;;;11.00;78.49
82222;BME280;71818;52.352;10.912;2023-08-08T00:29:55;99828.06;;;11.04;78.28
82222;BME280;71818;52.352;10.912;2023-08-08T00:32:20;99828.19;;;11.03;78.60
82222;BME280;71818;52.352;10.912;2023-08-08T00:34:46;99824.91;;;10.99;78.56
82222;BME280;71818;52.352;10.912;2023-08-08T00:37:11;99824.44;;;11.05;78.56
82222;BME280;71818;52.352;10.912;2023-08-08T00:39:36;99835.69;;;10.98;79.03
82222;BME280;71818;52.352;10.912;2023-08-08T00:42:02;99826.16;;;10.95;79.10
82222;BME280;71818;52.352;10.912;2023-08-08T00:44:27;99822.78;;;10.93;79.15
82222;BME280;71818;52.352;10.912;2023-08-08T00:46:53;99813.84;;;10.94;79.47
82222;BME280;71818;52.352;10.912;2023-08-08T00:49:19;99810.31;;;11.05;79.09
82222;BME280;71818;52.352;10.912;2023-08-08T00:51:45;99809.97;;;10.98;79.50
82222;BME280;71818;52.352;10.912;2023-08-08T00:54:11;99804.50;;;11.00;79.57
82222;BME280;71818;52.352;10.912;2023-08-08T00:56:38;99809.97;;;10.98;79.62
82222;BME280;71818;52.352;10.912;2023-08-08T00:59:03;99808.53;;;10.94;80.00
82222;BME280;71818;52.352;10.912;2023-08-08T01:01:29;99807.69;;;10.94;79.96
82222;BME280;71818;52.352;10.912;2023-08-08T01:03:54;99802.13;;;10.97;80.09
82222;BME280;71818;52.352;10.912;2023-08-08T01:06:29;99800.56;;;10.94;80.59
82222;BME280;71818;52.352;10.912;2023-08-08T01:08:59;99796.34;;;10.92;80.59
82222;BME280;71818;52.352;10.912;2023-08-08T01:11:27;99803.34;;;10.93;80.94
82222;BME280;71818;52.352;10.912;2023-08-08T01:13:54;99797.06;;;10.94;80.86
82222;BME280;71818;52.352;10.912;2023-08-08T01:16:21;99796.34;;;10.92;81.24
82222;BME280;71818;52.352;10.912;2023-08-08T01:18:48;99795.38;;;10.93;81.45
82222;BME280;71818;52.352;10.912;2023-08-08T01:21:15;99794.81;;;10.89;81.86
82222;BME280;71818;52.352;10.912;2023-08-08T01:24:18;99791.31;;;10.89;81.93
82222;BME280;71818;52.352;10.912;2023-08-08T01:26:44;99786.00;;;10.89;82.02
82222;BME280;71818;52.352;10.912;2023-08-08T01:29:10;99791.41;;;10.87;82.24
82222;BME280;71818;52.352;10.912;2023-08-08T01:31:35;99786.50;;;10.83;82.68
82222;BME280;71818;52.352;10.912;2023-08-08T01:34:00;99784.41;;;10.86;82.74
82222;BME280;71818;52.352;10.912;2023-08-08T01:36:48;99778.59;;;10.92;82.79
82222;BME280;71818;52.352;10.912;2023-08-08T01:39:27;99785.88;;;10.90;82.82
82222;BME280;71818;52.352;10.912;2023-08-08T01:41:55;99778.66;;;10.81;83.12
82222;BME280;71818;52.352;10.912;2023-08-08T01:44:22;99776.13;;;10.80;83.44
82222;BME280;71818;52.352;10.912;2023-08-08T01:46:48;99771.78;;;10.78;83.59
82222;BME280;71818;52.352;10.912;2023-08-08T01:49:14;99774.31;;;10.80;83.65
82222;BME280;71818;52.352;10.912;2023-08-08T01:51:39;99771.41;;;10.83;83.66
82222;BME280;71818;52.352;10.912;2023-08-08T01:54:05;99765.66;;;10.78;84.02
82222;BME280;71818;52.352;10.912;2023-08-08T01:56:30;99760.19;;;10.80;84.03
82222;BME280;71818;52.352;10.912;2023-08-08T01:58:55;99755.88;;;10.78;84.05
82222;BME280;71818;52.352;10.912;2023-08-08T02:01:21;99764.41;;;10.82;84.12
82222;BME280;71818;52.352;10.912;2023-08-08T02:03:47;99762.31;;;10.86;84.00
82222;BME280;71818;52.352;10.912;2023-08-08T02:06:12;99761.50;;;10.85;83.97
82222;BME280;71818;52.352;10.912;2023-08-08T02:08:37;99752.31;;;10.89;84.21
82222;BME280;71818;52.352;10.912;2023-08-08T02:11:03;99752.44;;;10.88;84.00
82222;BME280;71818;52.352;10.912;2023-08-08T02:13:28;99753.16;;;10.90;84.12
82222;BME280;71818;52.352;10.912;2023-08-08T02:15:53;99751.47;;;10.89;84.30
82222;BME280;71818;52.352;10.912;2023-08-08T02:18:19;99746.25;;;10.87;84.27
82222;BME280;71818;52.352;10.912;2023-08-08T02:20:44;99744.72;;;10.85;84.42
82222;BME280;71818;52.352;10.912;2023-08-08T02:23:09;99736.88;;;10.83;84.48
82222;BME280;71818;52.352;10.912;2023-08-08T02:25:35;99739.28;;;10.86;84.35
82222;BME280;71818;52.352;10.912;2023-08-08T02:28:00;99734.22;;;10.83;84.59
82222;BME280;71818;52.352;10.912;2023-08-08T02:30:25;99740.94;;;10.87;84.41
82222;BME280;71818;52.352;10.912;2023-08-08T02:32:51;99748.06;;;10.87;84.57
82222;BME280;71818;52.352;10.912;2023-08-08T02:35:17;99746.53;;;10.84;84.53
82222;BME280;71818;52.352;10.912;2023-08-08T02:37:42;99751.56;;;10.87;84.44
82222;BME280;71818;52.352;10.912;2023-08-08T02:40:08;99747.91;;;10.78;85.02
82222;BME280;71818;52.352;10.912;2023-08-08T02:42:34;99746.78;;;10.81;85.02
82222;BME280;71818;52.352;10.912;2023-08-08T02:45:00;99747.25;;;10.86;84.96
82222;BME280;71818;52.352;10.912;2023-08-08T02:47:25;99748.91;;;10.87;84.69
82222;BME280;71818;52.352;10.912;2023-08-08T02:49:50;99754.56;;;10.94;84.75
82222;BME280;71818;52.352;10.912;2023-08-08T02:52:16;99750.69;;;10.98;84.49
82222;BME280;71818;52.352;10.912;2023-08-08T02:54:41;99753.88;;;10.92;84.79
82222;BME280;71818;52.352;10.912;2023-08-08T02:57:06;99749.88;;;10.86;84.93
82222;BME280;71818;52.352;10.912;2023-08-08T02:59:32;99756.53;;;10.92;84.87
82222;BME280;71818;52.352;10.912;2023-08-08T03:01:57;99751.47;;;10.89;85.20
82222;BME280;71818;52.352;10.912;2023-08-08T03:04:23;99749.66;;;10.89;85.04
82222;BME280;71818;52.352;10.912;2023-08-08T03:06:48;99750.38;;;10.91;85.20
82222;BME280;71818;52.352;10.912;2023-08-08T03:09:13;99743.69;;;10.97;85.24
82222;BME280;71818;52.352;10.912;2023-08-08T03:11:39;99746.59;;;10.94;85.07
82222;BME280;71818;52.352;10.912;2023-08-08T03:14:07;99743.81;;;10.95;85.14
82222;BME280;71818;52.352;10.912;2023-08-08T03:16:32;99737.78;;;10.93;85.20
82222;BME280;71818;52.352;10.912;2023-08-08T03:18:58;99742.53;;;10.90;85.26
82222;BME280;71818;52.352;10.912;2023-08-08T03:21:23;99732.88;;;10.89;85.42
82222;BME280;71818;52.352;10.912;2023-08-08T03:23:49;99736.38;;;10.89;85.62
82222;BME280;71818;52.352;10.912;2023-08-08T03:26:14;99733.72;;;10.89;85.54
82222;BME280;71818;52.352;10.912;2023-08-08T03:28:40;99733.91;;;10.97;85.37
82222;BME280;71818;52.352;10.912;2023-08-08T03:31:05;99732.03;;;11.09;85.54
82222;BME280;71818;52.352;10.912;2023-08-08T03:33:30;99736.09;;;11.13;85.69
82222;BME280;71818;52.352;10.912;2023-08-08T03:35:56;99730.06;;;11.11;85.55
82222;BME280;71818;52.352;10.912;2023-08-08T03:38:21;99732.28;;;11.06;86.14
82222;BME280;71818;52.352;10.912;2023-08-08T03:40:46;99725.16;;;11.06;86.36
82222;BME280;71818;52.352;10.912;2023-08-08T03:43:12;99727.94;;;11.05;86.24
82222;BME280;71818;52.352;10.912;2023-08-08T03:45:38;99721.47;;;11.28;85.77
82222;BME280;71818;52.352;10.912;2023-08-08T03:48:04;99732.38;;;11.25;85.20
82222;BME280;71818;52.352;10.912;2023-08-08T03:50:30;99731.28;;;11.28;85.61
82222;BME280;71818;52.352;10.912;2023-08-08T03:52:55;99722.03;;;11.22;85.60
82222;BME280;71818;52.352;10.912;2023-08-08T03:55:20;99727.06;;;11.25;85.82
82222;BME280;71818;52.352;10.912;2023-08-08T03:57:46;99720.97;;;11.34;85.50
82222;BME280;71818;52.352;10.912;2023-08-08T04:00:11;99722.06;;;11.32;85.48
82222;BME280;71818;52.352;10.912;2023-08-08T04:02:37;99724.72;;;11.32;85.47
82222;BME280;71818;52.352;10.912;2023-08-08T04:05:02;99720.13;;;11.34;85.65
82222;BME280;71818;52.352;10.912;2023-08-08T04:07:27;99716.25;;;11.48;85.35
82222;BME280;71818;52.352;10.912;2023-08-08T04:09:53;99720.22;;;11.53;84.90
82222;BME280;71818;52.352;10.912;2023-08-08T04:12:18;99709.28;;;11.56;84.94
82222;BME280;71818;52.352;10.912;2023-08-08T04:14:43;99715.19;;;11.60;84.79
82222;BME280;71818;52.352;10.912;2023-08-08T04:17:09;99710.31;;;11.65;84.95
82222;BME280;71818;52.352;10.912;2023-08-08T04:19:34;99714.53;;;11.77;84.10
82222;BME280;71818;52.352;10.912;2023-08-08T04:22:00;99718.66;;;11.81;84.04
82222;BME280;71818;52.352;10.912;2023-08-08T04:24:25;99709.41;;;11.85;83.77
82222;BME280;71818;52.352;10.912;2023-08-08T04:26:51;99706.63;;;11.87;83.68
82222;BME280;71818;52.352;10.912;2023-08-08T04:29:16;99710.53;;;11.83;84.30
82222;BME280;71818;52.352;10.912;2023-08-08T04:31:41;99706.44;;;11.79;84.14
82222;BME280;71818;52.352;10.912;2023-08-08T04:34:06;99704.63;;;11.79;84.08
82222;BME280;71818;52.352;10.912;2023-08-08T04:36:32;99704.38;;;11.82;84.11
82222;BME280;71818;52.352;10.912;2023-08-08T04:38:58;99707.16;;;11.81;83.96
82222;BME280;71818;52.352;10.912;2023-08-08T04:41:23;99699.06;;;11.82;83.88
82222;BME280;71818;52.352;10.912;2023-08-08T04:43:49;99695.56;;;11.82;84.10
82222;BME280;71818;52.352;10.912;2023-08-08T04:46:14;99695.41;;;11.83;84.15
82222;BME280;71818;52.352;10.912;2023-08-08T04:48:40;99695.69;;;11.90;83.78
82222;BME280;71818;52.352;10.912;2023-08-08T04:51:05;99701.72;;;11.92;84.01
82222;BME280;71818;52.352;10.912;2023-08-08T04:53:30;99702.16;;;11.97;83.58
82222;BME280;71818;52.352;10.912;2023-08-08T04:55:56;99700.91;;;12.01;83.44
82222;BME280;71818;52.352;10.912;2023-08-08T04:58:21;99689.13;;;12.04;83.47
82222;BME280;71818;52.352;10.912;2023-08-08T05:00:46;99699.34;;;12.08;83.54
82222;BME280;71818;52.352;10.912;2023-08-08T05:03:12;99702.84;;;12.09;83.39
82222;BME280;71818;52.352;10.912;2023-08-08T05:05:37;99697.16;;;12.13;83.37
82222;BME280;71818;52.352;10.912;2023-08-08T05:08:03;99696.03;;;12.16;83.22
82222;BME280;71818;52.352;10.912;2023-08-08T05:10:28;99692.09;;;12.20;83.12
82222;BME280;71818;52.352;10.912;2023-08-08T05:12:54;99695.31;;;12.23;83.00
82222;BME280;71818;52.352;10.912;2023-08-08T05:15:20;99690.28;;;12.30;82.38
82222;BME280;71818;52.352;10.912;2023-08-08T05:17:45;99684.97;;;12.30;82.38
82222;BME280;71818;52.352;10.912;2023-08-08T05:20:11;99686.34;;;12.34;82.44
82222;BME280;71818;52.352;10.912;2023-08-08T05:22:37;99687.06;;;12.36;82.26
82222;BME280;71818;52.352;10.912;2023-08-08T05:25:03;99690.16;;;12.41;82.11
82222;BME280;71818;52.352;10.912;2023-08-08T05:27:29;99686.22;;;12.45;81.99
82222;BME280;71818;52.352;10.912;2023-08-08T05:29:54;99685.50;;;12.53;81.69
82222;BME280;71818;52.352;10.912;2023-08-08T05:32:19;99687.75;;;12.57;81.38
82222;BME280;71818;52.352;10.912;2023-08-08T05:34:45;99670.66;;;12.60;81.17
82222;BME280;71818;52.352;10.912;2023-08-08T05:37:10;99686.19;;;12.65;81.10
82222;BME280;71818;52.352;10.912;2023-08-08T05:39:35;99687.44;;;12.70;81.20
82222;BME280;71818;52.352;10.912;2023-08-08T05:42:01;99681.41;;;12.78;80.77
82222;BME280;71818;52.352;10.912;2023-08-08T05:44:26;99699.91;;;12.89;80.26
82222;BME280;71818;52.352;10.912;2023-08-08T05:46:51;99687.53;;;12.98;80.25
82222;BME280;71818;52.352;10.912;2023-08-08T05:49:17;99696.66;;;12.95;79.83
82222;BME280;71818;52.352;10.912;2023-08-08T05:51:42;99695.38;;;12.99;79.15
82222;BME280;71818;52.352;10.912;2023-08-08T05:54:08;99694.66;;;13.07;79.35
82222;BME280;71818;52.352;10.912;2023-08-08T05:56:36;99694.78;;;13.15;79.43
82222;BME280;71818;52.352;10.912;2023-08-08T05:59:02;99691.97;;;13.16;79.34
82222;BME280;71818;52.352;10.912;2023-08-08T06:01:28;99689.75;;;13.22;79.31
82222;BME280;71818;52.352;10.912;2023-08-08T06:03:53;99698.56;;;13.12;79.45
82222;BME280;71818;52.352;10.912;2023-08-08T06:06:19;99693.94;;;13.14;79.84
82222;BME280;71818;52.352;10.912;2023-08-08T06:08:44;99686.38;;;13.20;79.19
82222;BME280;71818;52.352;10.912;2023-08-08T06:11:09;99686.38;;;13.20;79.73
82222;BME280;71818;52.352;10.912;2023-08-08T06:13:35;99689.44;;;13.15;79.34
82222;BME280;71818;52.352;10.912;2023-08-08T06:16:00;99689.91;;;13.20;79.35
82222;BME280;71818;52.352;10.912;2023-08-08T06:18:27;99699.13;;;13.26;79.61
82222;BME280;71818;52.352;10.912;2023-08-08T06:20:52;99703.75;;;13.33;78.42
82222;BME280;71818;52.352;10.912;2023-08-08T06:23:17;99703.66;;;13.53;78.12
82222;BME280;71818;52.352;10.912;2023-08-08T06:25:43;99700.91;;;13.90;77.25
82222;BME280;71818;52.352;10.912;2023-08-08T06:28:08;99695.00;;;13.96;76.65
82222;BME280;71818;52.352;10.912;2023-08-08T06:30:34;99697.22;;;14.00;75.99
82222;BME280;71818;52.352;10.912;2023-08-08T06:32:59;99689.66;;;13.96;75.95
82222;BME280;71818;52.352;10.912;2023-08-08T06:35:24;99700.53;;;13.85;76.77
82222;BME280;71818;52.352;10.912;2023-08-08T06:37:50;99705.19;;;13.83;76.28
82222;BME280;71818;52.352;10.912;2023-08-08T06:40:15;99713.72;;;13.86;76.96
82222;BME280;71818;52.352;10.912;2023-08-08T06:42:41;99700.34;;;13.68;76.89
82222;BME280;71818;52.352;10.912;2023-08-08T06:45:07;99701.34;;;13.67;77.70
82222;BME280;71818;52.352;10.912;2023-08-08T06:47:32;99696.69;;;13.69;77.69
82222;BME280;71818;52.352;10.912;2023-08-08T06:49:57;99698.69;;;13.85;76.97
82222;BME280;71818;52.352;10.912;2023-08-08T06:52:23;99698.41;;;14.06;76.37
82222;BME280;71818;52.352;10.912;2023-08-08T06:54:48;99706.28;;;14.07;76.18
82222;BME280;71818;52.352;10.912;2023-08-08T06:57:13;99700.56;;;14.02;76.71
82222;BME280;71818;52.352;10.912;2023-08-08T06:59:39;99702.84;;;13.97;76.72
82222;BME280;71818;52.352;10.912;2023-08-08T07:02:05;99699.41;;;14.05;76.56
82222;BME280;71818;52.352;10.912;2023-08-08T07:04:31;99703.19;;;14.30;76.19
82222;BME280;71818;52.352;10.912;2023-08-08T07:06:56;99702.34;;;14.29;75.66
82222;BME280;71818;52.352;10.912;2023-08-08T07:09:21;99697.75;;;14.22;75.90
82222;BME280;71818;52.352;10.912;2023-08-08T07:11:47;99698.56;;;14.04;75.87
82222;BME280;71818;52.352;10.912;2023-08-08T07:14:12;99698.31;;;14.25;75.48
82222;BME280;71818;52.352;10.912;2023-08-08T07:16:38;99696.56;;;14.52;74.76
82222;BME280;71818;52.352;10.912;2023-08-08T07:19:03;99685.50;;;14.47;75.29
82222;BME280;71818;52.352;10.912;2023-08-08T07:21:28;99689.63;;;14.59;74.87
82222;BME280;71818;52.352;10.912;2023-08-08T07:23:54;99682.56;;;14.76;74.19
82222;BME280;71818;52.352;10.912;2023-08-08T07:26:20;99685.84;;;14.70;74.02
82222;BME280;71818;52.352;10.912;2023-08-08T07:28:47;99680.91;;;14.57;74.45
82222;BME280;71818;52.352;10.912;2023-08-08T07:31:12;99675.50;;;14.92;73.66
82222;BME280;71818;52.352;10.912;2023-08-08T07:33:37;99681.84;;;14.91;73.28
82222;BME280;71818;52.352;10.912;2023-08-08T07:36:04;99674.34;;;14.95;73.39
82222;BME280;71818;52.352;10.912;2023-08-08T07:38:29;99662.03;;;15.02;73.06
82222;BME280;71818;52.352;10.912;2023-08-08T07:40:54;99681.00;;;14.91;72.80
82222;BME280;71818;52.352;10.912;2023-08-08T07:43:20;99660.81;;;14.97;72.81
82222;BME280;71818;52.352;10.912;2023-08-08T07:45:46;99662.66;;;14.96;71.86
82222;BME280;71818;52.352;10.912;2023-08-08T07:48:14;99660.34;;;15.01;72.23
82222;BME280;71818;52.352;10.912;2023-08-08T07:50:39;99661.91;;;15.12;72.21
82222;BME280;71818;52.352;10.912;2023-08-08T07:53:04;99665.72;;;15.09;71.80
82222;BME280;71818;52.352;10.912;2023-08-08T07:55:30;99658.00;;;15.32;70.87
82222;BME280;71818;52.352;10.912;2023-08-08T07:57:55;99653.13;;;15.62;69.42
82222;BME280;71818;52.352;10.912;2023-08-08T08:00:20;99657.03;;;15.75;69.14
82222;BME280;71818;52.352;10.912;2023-08-08T08:02:49;99663.44;;;15.57;70.65
82222;BME280;71818;52.352;10.912;2023-08-08T08:05:15;99662.38;;;15.33;71.15
82222;BME280;71818;52.352;10.912;2023-08-08T08:07:41;99656.78;;;15.18;71.90
82222;BME280;71818;52.352;10.912;2023-08-08T08:10:09;99658.47;;;15.28;71.20
82222;BME280;71818;52.352;10.912;2023-08-08T08:12:35;99643.63;;;15.33;69.92
82222;BME280;71818;52.352;10.912;2023-08-08T08:15:01;99654.63;;;15.30;70.56
82222;BME280;71818;52.352;10.912;2023-08-08T08:17:27;99637.38;;;15.59;69.72
82222;BME280;71818;52.352;10.912;2023-08-08T08:19:55;99639.16;;;15.92;69.43
82222;BME280;71818;52.352;10.912;2023-08-08T08:22:20;99638.44;;;15.74;67.74
82222;BME280;71818;52.352;10.912;2023-08-08T08:24:49;99638.91;;;15.61;68.75
82222;BME280;71818;52.352;10.912;2023-08-08T08:27:15;99644.66;;;15.40;69.35
82222;BME280;71818;52.352;10.912;2023-08-08T08:29:43;99641.81;;;15.34;69.83
82222;BME280;71818;52.352;10.912;2023-08-08T08:32:14;99631.81;;;15.94;67.43
82222;BME280;71818;52.352;10.912;2023-08-08T08:34:42;99635.13;;;15.80;66.98
82222;BME280;71818;52.352;10.912;2023-08-08T08:37:07;99634.31;;;15.45;68.28
82222;BME280;71818;52.352;10.912;2023-08-08T08:39:33;99644.06;;;14.86;70.45
82222;BME280;71818;52.352;10.912;2023-08-08T08:41:59;99641.75;;;14.30;76.45
82222;BME280;71818;52.352;10.912;2023-08-08T08:44:30;99648.38;;;13.90;78.29
82222;BME280;71818;52.352;10.912;2023-08-08T08:46:59;99638.47;;;13.83;78.78
82222;BME280;71818;52.352;10.912;2023-08-08T08:49:30;99645.38;;;13.75;79.78
82222;BME280;71818;52.352;10.912;2023-08-08T08:51:57;99638.06;;;13.77;78.93
82222;BME280;71818;52.352;10.912;2023-08-08T08:54:27;99638.25;;;14.47;78.08
82222;BME280;71818;52.352;10.912;2023-08-08T08:56:52;99635.06;;;15.21;76.01
82222;BME280;71818;52.352;10.912;2023-08-08T08:59:18;99622.75;;;15.87;74.52
82222;BME280;71818;52.352;10.912;2023-08-08T09:01:43;99628.34;;;16.26;71.92
82222;BME280;71818;52.352;10.912;2023-08-08T09:04:09;99629.16;;;16.35;67.28
82222;BME280;71818;52.352;10.912;2023-08-08T09:06:36;99623.16;;;16.73;68.58
82222;BME280;71818;52.352;10.912;2023-08-08T09:09:04;99620.97;;;16.85;66.23
82222;BME280;71818;52.352;10.912;2023-08-08T09:11:30;99621.66;;;16.71;65.25
82222;BME280;71818;52.352;10.912;2023-08-08T09:13:56;99630.06;;;17.15;64.85
82222;BME280;71818;52.352;10.912;2023-08-08T09:16:22;99616.41;;;17.80;63.29
82222;BME280;71818;52.352;10.912;2023-08-08T09:18:48;99614.56;;;17.81;60.56
82222;BME280;71818;52.352;10.912;2023-08-08T09:21:13;99625.38;;;17.17;59.30
82222;BME280;71818;52.352;10.912;2023-08-08T09:23:40;99611.63;;;17.20;59.26
82222;BME280;71818;52.352;10.912;2023-08-08T09:26:06;99615.50;;;17.18;61.57
82222;BME280;71818;52.352;10.912;2023-08-08T09:28:31;99609.88;;;16.88;60.14
82222;BME280;71818;52.352;10.912;2023-08-08T09:31:00;99610.75;;;16.72;59.14
82222;BME280;71818;52.352;10.912;2023-08-08T09:33:28;99610.53;;;16.90;59.23
82222;BME280;71818;52.352;10.912;2023-08-08T09:35:54;99608.63;;;17.54;57.28
82222;BME280;71818;52.352;10.912;2023-08-08T09:38:20;99594.16;;;17.95;56.24
82222;BME280;71818;52.352;10.912;2023-08-08T09:40:51;99596.13;;;17.78;57.83
82222;BME280;71818;52.352;10.912;2023-08-08T09:43:17;99601.31;;;17.40;59.46
82222;BME280;71818;52.352;10.912;2023-08-08T09:45:47;99594.06;;;17.49;57.64
82222;BME280;71818;52.352;10.912;2023-08-08T09:48:13;99583.69;;;18.23;54.33
82222;BME280;71818;52.352;10.912;2023-08-08T09:50:42;99600.97;;;17.74;56.30
82222;BME280;71818;52.352;10.912;2023-08-08T09:53:08;99594.38;;;17.46;57.30
82222;BME280;71818;52.352;10.912;2023-08-08T09:55:35;99598.63;;;17.01;57.82
82222;BME280;71818;52.352;10.912;2023-08-08T09:58:04;99612.22;;;16.83;59.66
82222;BME280;71818;52.352;10.912;2023-08-08T10:00:33;99607.72;;;16.35;61.71
82222;BME280;71818;52.352;10.912;2023-08-08T10:03:00;99606.38;;;15.98;63.38
82222;BME280;71818;52.352;10.912;2023-08-08T10:05:27;99616.72;;;15.85;64.34
82222;BME280;71818;52.352;10.912;2023-08-08T10:07:53;99620.72;;;15.65;65.09
82222;BME280;71818;52.352;10.912;2023-08-08T10:10:19;99616.28;;;15.47;65.20
82222;BME280;71818;52.352;10.912;2023-08-08T10:12:47;99616.19;;;15.31;66.70
82222;BME280;71818;52.352;10.912;2023-08-08T10:15:16;99638.97;;;15.01;69.72
82222;BME280;71818;52.352;10.912;2023-08-08T10:17:41;99650.81;;;14.55;72.29
82222;BME280;71818;52.352;10.912;2023-08-08T10:20:09;99666.63;;;14.30;75.60
82222;BME280;71818;52.352;10.912;2023-08-08T10:22:45;99654.75;;;14.25;77.33
82222;BME280;71818;52.352;10.912;2023-08-08T10:25:28;99650.78;;;14.47;75.49
82222;BME280;71818;52.352;10.912;2023-08-08T10:28:12;99653.03;;;14.85;75.35
82222;BME280;71818;52.352;10.912;2023-08-08T10:30:51;99643.44;;;15.01;74.39
82222;BME280;71818;52.352;10.912;2023-08-08T10:33:18;99631.88;;;15.26;73.31
82222;BME280;71818;52.352;10.912;2023-08-08T10:38:23;99623.09;;;15.84;70.44
82222;BME280;71818;52.352;10.912;2023-08-08T10:40:55;99622.09;;;16.91;67.03
82222;BME280;71818;52.352;10.912;2023-08-08T10:43:26;99621.13;;;17.78;67.22
82222;BME280;71818;52.352;10.912;2023-08-08T10:45:52;99615.34;;;17.11;63.56
82222;BME280;71818;52.352;10.912;2023-08-08T10:48:17;99608.22;;;16.87;64.93
82222;BME280;71818;52.352;10.912;2023-08-08T10:50:46;99611.75;;;16.47;64.73
82222;BME280;71818;52.352;10.912;2023-08-08T10:53:11;99614.25;;;16.16;66.60
82222;BME280;71818;52.352;10.912;2023-08-08T10:55:37;99612.94;;;15.53;69.18
82222;BME280;71818;52.352;10.912;2023-08-08T10:58:06;99624.59;;;15.02;72.89
82222;BME280;71818;52.352;10.912;2023-08-08T11:00:34;99623.66;;;14.85;73.45
82222;BME280;71818;52.352;10.912;2023-08-08T11:03:00;99636.50;;;14.82;73.38
82222;BME280;71818;52.352;10.912;2023-08-08T11:05:28;99639.06;;;14.91;72.83
82222;BME280;71818;52.352;10.912;2023-08-08T11:07:55;99645.19;;;14.84;73.51
82222;BME280;71818;52.352;10.912;2023-08-08T11:10:21;99658.66;;;14.74;75.13
82222;BME280;71818;52.352;10.912;2023-08-08T11:13:00;99660.59;;;14.28;78.50
82222;BME280;71818;52.352;10.912;2023-08-08T11:15:26;99667.16;;;14.16;80.64
82222;BME280;71818;52.352;10.912;2023-08-08T11:17:54;99673.88;;;14.02;81.79
82222;BME280;71818;52.352;10.912;2023-08-08T11:20:21;99674.06;;;13.73;83.37
82222;BME280;71818;52.352;10.912;2023-08-08T11:22:55;99674.84;;;13.84;83.42
82222;BME280;71818;52.352;10.912;2023-08-08T11:25:21;99681.31;;;13.81;84.19
82222;BME280;71818;52.352;10.912;2023-08-08T11:27:51;99674.97;;;13.64;83.77
82222;BME280;71818;52.352;10.912;2023-08-08T11:30:17;99680.69;;;13.32;83.28
82222;BME280;71818;52.352;10.912;2023-08-08T11:32:43;99653.69;;;13.18;84.14
82222;BME280;71818;52.352;10.912;2023-08-08T11:35:08;99649.09;;;13.00;83.71
82222;BME280;71818;52.352;10.912;2023-08-08T11:37:35;99633.38;;;13.07;83.44
82222;BME280;71818;52.352;10.912;2023-08-08T11:40:01;99641.63;;;13.23;82.72
82222;BME280;71818;52.352;10.912;2023-08-08T11:42:26;99640.84;;;13.31;81.19
82222;BME280;71818;52.352;10.912;2023-08-08T11:44:52;99630.78;;;13.80;80.32
82222;BME280;71818;52.352;10.912;2023-08-08T11:47:24;99619.19;;;14.68;81.69
82222;BME280;71818;52.352;10.912;2023-08-08T11:49:51;99623.72;;;15.28;80.46
82222;BME280;71818;52.352;10.912;2023-08-08T11:52:18;99613.28;;;15.59;77.38
82222;BME280;71818;52.352;10.912;2023-08-08T11:54:43;99613.06;;;15.78;77.05
82222;BME280;71818;52.352;10.912;2023-08-08T11:57:09;99615.44;;;16.30;79.26
82222;BME280;71818;52.352;10.912;2023-08-08T11:59:35;99612.56;;;16.64;77.24
82222;BME280;71818;52.352;10.912;2023-08-08T12:02:01;99614.09;;;16.75;74.87
82222;BME280;71818;52.352;10.912;2023-08-08T12:04:26;99610.31;;;17.08;75.20
82222;BME280;71818;52.352;10.912;2023-08-08T12:07:01;99604.75;;;17.18;74.34
82222;BME280;71818;52.352;10.912;2023-08-08T12:09:33;99600.19;;;17.66;74.16
82222;BME280;71818;52.352;10.912;2023-08-08T12:12:02;99603.00;;;17.72;69.67
82222;BME280;71818;52.352;10.912;2023-08-08T12:14:29;99592.22;;;17.49;70.17
82222;BME280;71818;52.352;10.912;2023-08-08T12:16:55;99586.91;;;17.72;67.70
82222;BME280;71818;52.352;10.912;2023-08-08T12:19:24;99585.31;;;18.09;66.50
82222;BME280;71818;52.352;10.912;2023-08-08T12:21:51;99573.41;;;18.26;65.40
82222;BME280;71818;52.352;10.912;2023-08-08T12:24:18;99580.34;;;18.20;63.73
82222;BME280;71818;52.352;10.912;2023-08-08T12:26:43;99574.00;;;18.51;63.53
82222;BME280;71818;52.352;10.912;2023-08-08T12:29:09;99581.75;;;18.31;61.78
82222;BME280;71818;52.352;10.912;2023-08-08T12:31:34;99581.13;;;18.67;59.55
82222;BME280;71818;52.352;10.912;2023-08-08T12:34:00;99574.84;;;18.14;58.23
82222;BME280;71818;52.352;10.912;2023-08-08T12:36:26;99573.72;;;18.69;60.13
82222;BME280;71818;52.352;10.912;2023-08-08T12:38:51;99572.25;;;18.43;59.43
82222;BME280;71818;52.352;10.912;2023-08-08T12:41:16;99581.16;;;18.21;57.74
82222;BME280;71818;52.352;10.912;2023-08-08T12:43:42;99581.41;;;18.34;57.94
82222;BME280;71818;52.352;10.912;2023-08-08T12:46:07;99571.44;;;18.58;59.01
82222;BME280;71818;52.352;10.912;2023-08-08T12:48:32;99577.06;;;18.86;57.50